Data for 07/07/2015

Time Sea-Level Adjusted Pressure Absolute Pressure Temperature Relative Humidity Dew Point   
(mb) (inHg) (mb) (inHg) (C) (F) (%) (C) (F)
00:05 1022 30.18 851 25.13 15.8 60.4 61 8.2 46.8
00:10 1022 30.18 851 25.13 15.6 60.1 61 8.3 46.9
00:15 1022 30.18 851 25.13 15.5 59.8 62 8.3 46.9
00:20 1022 30.18 851 25.13 15.4 59.6 62 8.2 46.8
00:25 1022 30.18 851 25.13 15.3 59.5 62 8.2 46.7
00:30 1022 30.18 851 25.13 15.2 59.4 62 8.1 46.7
00:35 1022 30.18 851 25.13 15.1 59.2 63 8.2 46.7
00:40 1022 30.18 851 25.13 15 59 63 8.1 46.6
00:45 1022 30.18 851 25.13 15 59.1 63 8.1 46.6
00:50 1022 30.18 851 25.13 15 59 63 8.2 46.7
00:55 1022 30.18 851 25.13 15 58.9 63 8.2 46.7
01:00 1022 30.18 851 25.13 14.9 58.9 64 8.2 46.7
01:05 1022 30.18 851 25.13 14.9 58.8 64 8.2 46.8
01:10 1022 30.18 851 25.13 14.7 58.5 66 8.5 47.3
01:15 1022 30.18 851 25.13 14.4 57.9 67 8.3 47
01:20 1022 30.18 851 25.13 14.3 57.8 67 8.2 46.8
01:25 1021 30.15 851 25.13 14.3 57.7 67 8.2 46.8
01:30 1021 30.15 851 25.13 14.2 57.6 67 8.2 46.8
01:35 1022 30.18 851 25.13 14.1 57.3 68 8.3 46.9
01:40 1022 30.18 851 25.13 14 57.3 68 8.2 46.8
01:45 1022 30.18 851 25.13 14 57.2 68 8.2 46.8
01:50 1022 30.18 851 25.13 13.9 57.1 68 8.2 46.7
01:55 1022 30.18 851 25.13 13.9 57 68 8.2 46.7
02:00 1022 30.18 851 25.13 13.9 57 68 8.1 46.6
02:05 1022 30.18 851 25.13 13.9 56.9 68 8.2 46.7
02:10 1022 30.18 851 25.13 13.8 56.8 68 8.1 46.7
02:15 1022 30.18 851 25.13 13.7 56.7 69 8.1 46.6
02:20 1022 30.18 851 25.13 13.8 56.8 68 8 46.4
02:25 1022 30.18 851 25.13 13.8 56.9 68 8.2 46.7
02:30 1022 30.18 851 25.13 13.8 56.8 68 8.1 46.5
02:35 1022 30.18 851 25.13 13.7 56.7 69 8.2 46.8
02:40 1022 30.18 851 25.13 13.3 56 72 8.3 47
02:45 1022 30.18 851 25.13 12.9 55.3 73 8.2 46.7
02:50 1022 30.18 851 25.13 13 55.5 71 8 46.5
02:55 1022 30.18 851 25.13 13.1 55.6 72 8.2 46.7
03:00 1022 30.18 851 25.13 13.1 55.6 71 8.1 46.5
03:05 1022 30.18 851 25.13 13.1 55.5 71 8 46.5
03:10 1022 30.18 851 25.13 13 55.4 72 8.1 46.5
03:15 1022 30.18 851 25.13 13 55.3 72 8.1 46.5
03:20 1022 30.18 851 25.13 12.9 55.2 72 8.1 46.5
03:25 1022 30.18 851 25.13 12.9 55.3 71 7.9 46.3
03:30 1022 30.18 851 25.13 13 55.3 72 8 46.5
03:35 1022 30.18 851 25.13 13 55.3 72 8 46.4
03:40 1021 30.15 851 25.13 12.9 55.2 73 8.1 46.6
03:45 1021 30.15 851 25.13 12.8 55 73 8.1 46.6
03:50 1021 30.15 851 25.13 12.7 54.8 73 8 46.4
03:55 1021 30.15 851 25.13 12.6 54.7 73 7.9 46.3
04:00 1021 30.15 851 25.13 12.7 54.8 73 8 46.3
04:05 1021 30.15 851 25.13 12.7 54.8 73 8 46.3
04:10 1021 30.15 851 25.13 12.6 54.7 73 8 46.4
04:15 1021 30.15 851 25.13 12.5 54.5 73 7.9 46.3
04:20 1021 30.15 851 25.13 12.5 54.4 74 7.9 46.3
04:25 1021 30.15 850 25.1 12.4 54.3 74 7.9 46.2
04:30 1021 30.15 850 25.1 12.4 54.3 75 8 46.4
04:35 1021 30.15 850 25.1 12.3 54.1 75 8 46.4
04:40 1021 30.15 850 25.1 12.2 53.9 75 7.9 46.3
04:45 1021 30.15 850 25.1 12.3 54.1 75 8 46.4
04:50 1021 30.15 850 25.1 12.2 54 75 8 46.3
04:55 1021 30.15 850 25.1 12.1 53.8 76 8 46.4
05:00 1021 30.15 851 25.13 12.1 53.8 75 7.9 46.2
05:05 1021 30.15 851 25.13 12.2 54 75 8 46.4
05:10 1021 30.15 851 25.13 12.3 54.1 75 7.9 46.3
05:15 1021 30.15 851 25.13 12.5 54.4 74 7.9 46.3
05:20 1021 30.15 851 25.13 12.6 54.6 74 8 46.4
05:25 1021 30.15 851 25.13 12.6 54.7 73 8 46.4
05:30 1021 30.15 851 25.13 12.7 54.9 73 8 46.3
05:35 1022 30.18 851 25.13 12.9 55.2 72 8 46.4
05:40 1022 30.18 851 25.13 13 55.5 72 8.1 46.5
05:45 1022 30.18 851 25.13 13.1 55.6 71 8.1 46.5
05:50 1022 30.18 851 25.13 13.3 55.9 70 8 46.4
05:55 1022 30.18 851 25.13 13.4 56.1 70 8.1 46.5
06:00 1022 30.18 851 25.13 13.4 56.2 70 8.2 46.7
06:05 1022 30.18 851 25.13 13.4 56.2 71 8.2 46.8
06:10 1022 30.18 851 25.13 13.5 56.3 70 8.2 46.8
06:15 1022 30.18 851 25.13 13.7 56.6 69 8.2 46.8
06:20 1022 30.18 851 25.13 13.9 57 69 8.4 47.1
06:25 1022 30.18 851 25.13 14.1 57.4 69 8.6 47.4
06:30 1022 30.18 851 25.13 14.3 57.8 68 8.5 47.3
06:35 1022 30.18 851 25.13 14.4 57.9 67 8.4 47.1
06:40 1022 30.18 851 25.13 14.7 58.5 67 8.7 47.6
06:45 1022 30.18 851 25.13 14.7 58.5 67 8.7 47.6
06:50 1022 30.18 851 25.13 14.8 58.6 67 8.7 47.7
06:55 1022 30.18 851 25.13 15.2 59.4 65 8.8 47.8
07:00 1022 30.18 851 25.13 15.4 59.7 65 8.9 48
07:05 1022 30.18 851 25.13 15.9 60.6 63 9 48.2
07:10 1022 30.18 851 25.13 16.5 61.6 62 9.2 48.5
07:15 1022 30.18 851 25.13 16.3 61.4 62 9.1 48.4
07:20 1022 30.18 851 25.13 16.2 61.1 62 9 48.3
07:25 1022 30.18 851 25.13 16.2 61.1 63 9.1 48.5
07:30 1022 30.18 851 25.13 16.4 61.6 61 8.9 48
07:35 1022 30.18 851 25.13 16.9 62.3 61 9.3 48.7
07:40 1022 30.18 851 25.13 17.4 63.2 60 9.6 49.3
07:45 1022 30.18 851 25.13 17.9 64.2 57 9.3 48.7
07:50 1022 30.18 851 25.13 18.7 65.7 54 9.3 48.8
07:55 1022 30.18 851 25.13 18.8 65.8 55 9.7 49.5
08:00 1022 30.18 851 25.13 18.9 66 54 9.6 49.3
08:05 1022 30.18 851 25.13 19.1 66.4 53 9.3 48.8
08:10 1022 30.18 851 25.13 19.4 67 50 8.9 48.1
08:15 1022 30.18 851 25.13 20.1 68.2 48 8.8 47.9
08:20 1022 30.18 851 25.13 20.4 68.8 47 8.9 48.1
08:25 1022 30.18 851 25.13 20.3 68.6 49 9.5 49
08:30 1022 30.18 851 25.13 20.3 68.6 48 9.1 48.4
08:35 1022 30.18 851 25.13 20.9 69.6 48 9.7 49.5
08:40 1022 30.18 851 25.13 20.3 68.6 49 9.5 49.1
08:45 1022 30.18 851 25.13 21 69.7 46 9.2 48.5
08:50 1021 30.15 851 25.13 21.5 70.6 46 9.4 49
08:55 1021 30.15 851 25.13 21.4 70.5 44 9 48.1
09:00 1021 30.15 851 25.13 21.6 70.9 44 9.1 48.5
09:05 1021 30.15 851 25.13 21.5 70.7 46 9.6 49.3
09:10 1021 30.15 851 25.13 21.1 69.9 47 9.4 49
09:15 1021 30.15 851 25.13 21 69.9 45 8.7 47.7
09:20 1021 30.15 850 25.1 21.2 70.2 45 9.1 48.4
09:25 1021 30.15 850 25.1 21.5 70.7 45 9.2 48.6
09:30 1021 30.15 850 25.1 21.8 71.3 44 9.1 48.4
09:35 1021 30.15 850 25.1 21.9 71.5 43 9 48.2
09:40 1021 30.15 850 25.1 22.4 72.2 41 8.6 47.5
09:45 1021 30.15 850 25.1 23 73.5 41 9.1 48.4
09:50 1021 30.15 850 25.1 23.2 73.7 39 8.5 47.4
09:55 1021 30.15 850 25.1 23.3 73.9 40 9.2 48.5
10:00 1021 30.15 850 25.1 23 73.4 39 8.6 47.5
10:05 1021 30.15 850 25.1 23.6 74.4 38 8.6 47.5
10:10 1021 30.15 850 25.1 23.6 74.4 39 8.8 47.9
10:15 1021 30.15 850 25.1 23.6 74.5 39 9 48.3
10:20 1021 30.15 850 25.1 23.8 74.9 39 9.4 48.8
10:25 1021 30.15 850 25.1 23.9 75.1 38 9 48.3
10:30 1021 30.15 850 25.1 23.5 74.3 40 9.3 48.8
10:35 1021 30.15 850 25.1 23.8 74.8 39 9.3 48.8
10:40 1021 30.15 850 25.1 24.2 75.5 37 8.8 47.8
10:45 1021 30.15 850 25.1 24.2 75.6 38 9.3 48.8
10:50 1021 30.15 850 25.1 24.2 75.5 35 8 46.4
10:55 1021 30.15 850 25.1 24.7 76.5 35 8.3 46.9
11:00 1021 30.15 850 25.1 24.1 75.4 36 8.3 47
11:05 1021 30.15 850 25.1 23.7 74.6 39 9 48.1
11:10 1021 30.15 850 25.1 24.1 75.3 34 7.4 45.4
11:15 1021 30.15 850 25.1 25.2 77.4 32 7.7 45.8
11:20 1021 30.15 850 25.1 25.4 77.7 30 6.9 44.4
11:25 1021 30.15 850 25.1 25.6 78 30 7.2 44.9
11:30 1021 30.15 850 25.1 25.4 77.7 26 4.9 40.8
11:35 1020 30.12 850 25.1 25.8 78.4 29 6.9 44.5
11:40 1020 30.12 850 25.1 26.2 79.1 26 5.4 41.7
11:45 1020 30.12 850 25.1 26.2 79.1 26 5.2 41.4
11:50 1020 30.12 849 25.07 26.4 79.5 25 5 41.1
11:55 1020 30.12 849 25.07 26.8 80.3 24 4.9 40.9
12:00 1020 30.12 849 25.07 26.2 79.2 24 4.4 39.9
12:05 1020 30.12 849 25.07 26.5 79.7 24 4.4 39.8
12:10 1020 30.12 849 25.07 26.5 79.6 22 3.5 38.3
12:15 1020 30.12 849 25.07 26.5 79.7 22 3.6 38.4
12:20 1020 30.12 849 25.07 26.9 80.3 23 4.1 39.3
12:25 1020 30.12 849 25.07 26.8 80.3 22 3.8 38.9
12:30 1020 30.12 849 25.07 27 80.7 19 1.8 35.2
12:35 1020 30.12 849 25.07 26.5 79.7 18 0.6 33.1
12:40 1020 30.12 849 25.07 28 82.5 19 2.4 36.3
12:45 1020 30.12 849 25.07 28.3 83 18 2 35.5
12:50 1020 30.12 849 25.07 27 80.5 20 2.4 36.4
12:55 1020 30.12 849 25.07 27 80.6 20 2.5 36.5
13:00 1020 30.12 849 25.07 27.3 81.2 19 2.3 36.1
13:05 1020 30.12 849 25.07 27.3 81.1 21 3.1 37.6
13:10 1020 30.12 849 25.07 27.5 81.4 21 3.5 38.3
13:15 1020 30.12 849 25.07 27.6 81.7 21 3.7 38.6
13:20 1019 30.09 849 25.07 27.7 81.9 21 4 39.1
13:25 1019 30.09 849 25.07 27.1 80.9 21 3.4 38
13:30 1019 30.09 849 25.07 27.3 81.1 20 2.8 37
13:35 1019 30.09 848 25.04 27.1 80.8 20 2.4 36.3
13:40 1019 30.09 848 25.04 27.7 81.9 20 3.2 37.8
13:45 1019 30.09 848 25.04 26.6 79.8 20 2.1 35.7
13:50 1019 30.09 848 25.04 27.2 81 21 3 37.4
13:55 1019 30.09 848 25.04 26.9 80.5 21 2.9 37.2
14:00 1019 30.09 848 25.04 26 78.8 22 2.8 37
14:05 1019 30.09 848 25.04 27 80.6 20 2.6 36.6
14:10 1019 30.09 848 25.04 28.1 82.6 19 2.4 36.4
14:15 1019 30.09 848 25.04 27.7 81.9 20 2.7 36.9
14:20 1019 30.09 848 25.04 26.8 80.3 19 1.7 35.1
14:25 1019 30.09 848 25.04 27.3 81.1 19 2.1 35.8
14:30 1019 30.09 848 25.04 28 82.4 18 1.5 34.7
14:35 1019 30.09 848 25.04 28.1 82.6 19 2.3 36.2
14:40 1019 30.09 848 25.04 28.6 83.4 20 3.7 38.7
14:45 1019 30.09 848 25.04 28.5 83.3 19 2.7 36.8
14:50 1019 30.09 848 25.04 27.9 82.1 27 7.2 45
14:55 1019 30.09 848 25.04 26.6 80 29 7.2 44.9
15:00 1019 30.09 848 25.04 26.2 79.1 27 6.2 43.2
15:05 1018 30.06 848 25.04 26 78.8 28 6.2 43.1
15:10 1018 30.06 848 25.04 25.6 78 28 6 42.8
15:15 1019 30.09 848 25.04 25.3 77.5 28 5.7 42.2
15:20 1018 30.06 848 25.04 25.6 78 26 5.1 41.2
15:25 1018 30.06 848 25.04 26.1 78.9 27 5.8 42.5
15:30 1018 30.06 848 25.04 25.4 77.6 28 5.7 42.3
15:35 1018 30.06 848 25.04 24.5 76.1 30 5.9 42.7
15:40 1018 30.06 848 25.04 24.5 76.1 29 5.7 42.2
15:45 1019 30.09 848 25.04 24.4 75.9 29 5.5 41.8
15:50 1019 30.09 848 25.04 24 75.3 29 5 41.1
15:55 1019 30.09 848 25.04 23.8 74.9 30 5.6 42.2
16:00 1019 30.09 848 25.04 23.9 74.9 30 5.7 42.2
16:05 1019 30.09 848 25.04 23 73.4 40 9 48.2
16:10 1019 30.09 849 25.07 20.4 68.8 49 9.4 49
16:15 1020 30.12 849 25.07 19 66.1 49 8.2 46.8
16:20 1020 30.12 849 25.07 18.4 65.2 53 8.8 47.8
16:25 1020 30.12 849 25.07 18.4 65.2 50 8.1 46.5
16:30 1020 30.12 849 25.07 18.6 65.4 49 7.8 46
16:35 1020 30.12 849 25.07 19.1 66.3 48 7.9 46.2
16:40 1020 30.12 849 25.07 19.4 66.8 48 8.3 46.9
16:45 1020 30.12 849 25.07 19.7 67.4 48 8.4 47.1
16:50 1020 30.12 849 25.07 19.8 67.6 45 7.8 46
16:55 1020 30.12 849 25.07 19.9 67.9 46 8.1 46.6
17:00 1020 30.12 849 25.07 20 68 48 8.9 48
17:05 1020 30.12 849 25.07 19.3 66.7 54 9.7 49.5
17:10 1020 30.12 849 25.07 18.6 65.5 55 9.6 49.3
17:15 1020 30.12 849 25.07 18.7 65.6 54 9.4 48.8
17:20 1020 30.12 849 25.07 18.8 65.8 51 8.5 47.2
17:25 1020 30.12 849 25.07 18.8 65.9 52 8.9 47.9
17:30 1020 30.12 849 25.07 19.1 66.3 53 9.4 48.8
17:35 1020 30.12 849 25.07 18.9 66 54 9.6 49.3
17:40 1020 30.12 849 25.07 18.8 65.9 53 9.3 48.7
17:45 1020 30.12 849 25.07 18.8 65.8 53 9 48.1
17:50 1020 30.12 849 25.07 19 66.1 53 9.2 48.5
17:55 1020 30.12 849 25.07 18.6 65.5 57 10 50.1
18:00 1020 30.12 849 25.07 18.5 65.3 57 9.8 49.7
18:05 1020 30.12 849 25.07 18.7 65.7 55 9.7 49.4
18:10 1020 30.12 849 25.07 18.8 65.8 56 10 50.1
18:15 1020 30.12 849 25.07 18.8 65.8 56 9.9 49.9
18:20 1020 30.12 849 25.07 18.6 65.4 55 9.4 48.8
18:25 1020 30.12 849 25.07 18.3 65 56 9.6 49.3
18:30 1020 30.12 849 25.07 18.3 64.9 54 8.9 48.1
18:35 1020 30.12 849 25.07 18.4 65 54 8.9 48
18:40 1020 30.12 849 25.07 18.2 64.8 56 9.4 49
18:45 1020 30.12 849 25.07 18.2 64.7 54 8.8 47.9
18:50 1020 30.12 849 25.07 18.2 64.8 54 9 48.2
18:55 1020 30.12 849 25.07 18.1 64.6 55 9.1 48.3
19:00 1020 30.12 849 25.07 17.9 64.3 57 9.4 48.9
19:05 1020 30.12 849 25.07 17.7 63.8 58 9.5 49.1
19:10 1020 30.12 849 25.07 17.4 63.3 57 8.8 47.9
19:15 1020 30.12 849 25.07 17.3 63.1 58 9 48.2
19:20 1020 30.12 849 25.07 17.1 62.8 58 8.9 48
19:25 1020 30.12 849 25.07 17 62.5 58 8.6 47.6
19:30 1020 30.12 849 25.07 16.9 62.3 58 8.5 47.4
19:35 1020 30.12 849 25.07 16.8 62.2 58 8.5 47.3
19:40 1020 30.12 849 25.07 16.8 62.3 56 8.1 46.6
19:45 1020 30.12 849 25.07 17 62.5 56 8.2 46.7
19:50 1020 30.12 849 25.07 16.8 62.3 57 8.3 47
19:55 1020 30.12 850 25.1 16.7 62.1 57 8.3 46.9
20:00 1020 30.12 850 25.1 16.7 62 58 8.4 47.1
20:05 1020 30.12 850 25.1 16.6 61.8 58 8.4 47.1
20:10 1020 30.12 850 25.1 16.5 61.7 59 8.5 47.3
20:15 1021 30.15 850 25.1 16.4 61.5 59 8.5 47.2
20:20 1021 30.15 850 25.1 16.4 61.5 60 8.7 47.6
20:25 1021 30.15 850 25.1 16.3 61.3 60 8.6 47.5
20:30 1021 30.15 850 25.1 16.4 61.5 59 8.5 47.3
20:35 1021 30.15 850 25.1 16.4 61.6 59 8.5 47.3
20:40 1021 30.15 850 25.1 16.5 61.6 59 8.4 47.2
20:45 1021 30.15 850 25.1 16.4 61.6 61 9 48.2
20:50 1021 30.15 851 25.13 16.1 61 63 9.2 48.5
20:55 1021 30.15 851 25.13 16 60.7 64 9.3 48.7
21:00 1022 30.18 851 25.13 15.8 60.4 69 10.1 50.2
21:05 1022 30.18 851 25.13 15.1 59.1 76 11 51.8
21:10 1022 30.18 851 25.13 14.5 58.2 78 10.8 51.5
21:15 1022 30.18 851 25.13 14.4 57.9 81 11.2 52.1
21:20 1022 30.18 851 25.13 14.3 57.7 83 11.4 52.5
21:25 1022 30.18 851 25.13 14.1 57.4 83 11.2 52.2
21:30 1022 30.18 851 25.13 13.8 56.8 81 10.6 51.1
21:35 1022 30.18 851 25.13 13.9 56.9 80 10.4 50.7
21:40 1022 30.18 851 25.13 14 57.1 79 10.4 50.8
21:45 1022 30.18 851 25.13 13.9 57.1 81 10.7 51.2
21:50 1021 30.15 850 25.1 13.7 56.7 82 10.7 51.2
21:55 1021 30.15 850 25.1 13.6 56.5 81 10.4 50.6
22:00 1021 30.15 850 25.1 13.8 56.8 77 9.9 49.8
22:05 1021 30.15 850 25.1 13.9 57 79 10.2 50.4
22:10 1021 30.15 850 25.1 13.7 56.7 79 10.2 50.3
22:15 1021 30.15 850 25.1 13.7 56.6 79 10.1 50.2
22:20 1021 30.15 850 25.1 13.7 56.6 79 10.1 50.3
22:25 1021 30.15 850 25.1 13.6 56.5 78 9.9 49.8
22:30 1021 30.15 850 25.1 13.7 56.6 77 9.8 49.6
22:35 1021 30.15 850 25.1 13.7 56.7 77 9.7 49.5
22:40 1021 30.15 850 25.1 13.8 56.8 76 9.7 49.5
22:45 1021 30.15 850 25.1 13.9 57 74 9.4 49
22:50 1021 30.15 850 25.1 13.9 57.1 74 9.3 48.8
22:55 1021 30.15 850 25.1 13.9 57.1 72 9.1 48.4
23:00 1021 30.15 850 25.1 14 57.1 72 9 48.3
23:05 1021 30.15 850 25.1 14 57.2 72 9 48.2
23:10 1021 30.15 850 25.1 14 57.2 70 8.6 47.5
23:15 1021 30.15 850 25.1 14.1 57.3 70 8.8 47.8
23:20 1021 30.15 850 25.1 14 57.2 70 8.7 47.7
23:25 1021 30.15 850 25.1 14 57.2 69 8.5 47.3
23:30 1021 30.15 850 25.1 14 57.1 70 8.6 47.5
23:35 1021 30.15 850 25.1 14 57.1 69 8.4 47.1
23:40 1021 30.15 850 25.1 14 57.2 69 8.4 47.2
23:45 1021 30.15 850 25.1 14 57.1 70 8.5 47.4
23:50 1021 30.15 850 25.1 13.9 57 70 8.5 47.3
23:55 1021 30.15 850 25.1 13.8 56.9 71 8.6 47.5
24:00 1021 30.15 850 25.1 13.6 56.5 72 8.8 47.8